Historique des mesures à Cassis (13260), France
Quotidien Résumé Juin 9, 2017 Unités:  US    Métrique   Métrique/US
« Précédent (Jour)
Suivant (Jour) »
Quotidien Hebdomadaire Mensuel Annuel Période au choix
  Maximum: Minimum: Moyenne:
Température: 32 °F 62.2 °F 69.3 °F
Point de rosée: 32 °F 53.8 °F 56.8 °F
Humidité: Humidity % 52 % 62 %
Vitesse du vent: WindSpeedKMH mph 0.0 mph 2.2 mph
Rafales: WindSpeedGustKMH mph - -
Vent:- - SSE
Pression: 0 in 29.9 in -
Précipitations: 0 in    
Historical Graphs
 
 
Mesures pour : Juin 9, 2017
Heure Temperature Point de rosée Pression Vent Vitesse du vent Rafales Humidité Pluie (par heure) Conditions
32 °F 32 °F 0 in Calm     Humidity % 0 in SoftwareType W/m2
00:10 65.3 °F 54.9 °F 29.9 in Calm     69 % 0 in open2300-1.11 W/m2
01:10 64.2 °F 55.4 °F 29.9 in Calm     73 % 0 in open2300-1.11 W/m2
02:10 63.5 °F 54.7 °F 29.9 in Calm     73 % 0 in open2300-1.11 W/m2
03:10 63 °F 54.5 °F 29.9 in Calm     74 % 0 in open2300-1.11 W/m2
04:10 62.8 °F 54.7 °F 29.9 in Calm   2.1 mph 75 % 0 in open2300-1.11 W/m2
05:10 62.2 °F 53.8 °F 29.9 in Calm     74 % 0 in open2300-1.11 W/m2
06:10 62.2 °F 54.1 °F 29.9 in Calm   1.4 mph 75 % 0 in open2300-1.11 W/m2
07:10 63 °F 54.9 °F 29.9 in North 2.6 mph 2.6 mph 75 % 0 in open2300-1.11 W/m2
08:10 66.7 °F 56.7 °F 29.9 in NNW 2.1 mph 2.9 mph 70 % 0 in open2300-1.11 W/m2
09:10 69.4 °F 56.7 °F 29.9 in South 2.1 mph 2.9 mph 64 % 0 in open2300-1.11 W/m2
10:10 71.4 °F 57.4 °F 29.9 in SSE 5.5 mph 5.5 mph 61 % 0 in open2300-1.11 W/m2
11:10 75.4 °F 60.1 °F 29.9 in SE 2.6 mph 5.8 mph 59 % 0 in open2300-1.11 W/m2
12:10 77.9 °F 61.3 °F 29.9 in SSE 4.7 mph 4.7 mph 57 % 0 in open2300-1.11 W/m2
13:10 79.9 °F 62.2 °F 29.9 in SSE 8.2 mph 8.2 mph 55 % 0 in open2300-1.11 W/m2
14:10 80.4 °F 61.7 °F 29.9 in ESE 1.8 mph 5.5 mph 53 % 0 in open2300-1.11 W/m2
15:10 80.4 °F 61.2 °F 29.9 in SE 3.2 mph 7.2 mph 52 % 0 in open2300-1.11 W/m2
16:10 79.7 °F 60.4 °F 29.9 in Calm   3.2 mph 52 % 0 in open2300-1.11 W/m2
17:10 78.8 °F 60.6 °F 29.9 in SSE 4.0 mph 4.0 mph 54 % 0 in open2300-1.11 W/m2
18:10 76.8 °F 60.4 °F 29.9 in South 6.8 mph 6.8 mph 57 % 0 in open2300-1.11 W/m2
19:10 75 °F 60.6 °F 29.9 in SSE 3.2 mph 6.1 mph 61 % 0 in open2300-1.11 W/m2
20:10 72.7 °F 60.6 °F 29.9 in Calm   3.5 mph 66 % 0 in open2300-1.11 W/m2
21:10 71.1 °F 60.4 °F 29.9 in Calm     69 % 0 in open2300-1.11 W/m2
22:10 69.6 °F 58.1 °F 29.9 in North 3.2 mph 9.0 mph 67 % 0 in open2300-1.11 W/m2
23:10 68.7 °F 55.6 °F 29.9 in NNW 5.5 mph 8.7 mph 63 % 0 in open2300-1.11 W/m2
Observations météo à CASSIS
WU-History script by Weather Underground - 1 mb